Time;durP1;ratioP1;P1;durP2;ratioP2;P2;SDS_P1;SDS_P2;PMS_P1;PMS_P2;Temp;Humidity;BMP_temperature;BMP_pressure;BME280_temperature;BME280_humidity;BME280_pressure;Samples;Min_cycle;Max_cycle;Signal;HPM_P1;HPM_P2
2022/01/04 00:00:21;;;;;;;4.20;1.70;;;7.90;99.90;;;;;;5019045;28;20057;-78
2022/01/04 00:02:47;;;;;;;5.10;1.30;;;7.90;99.90;;;;;;5018867;28;20044;-78
2022/01/04 00:05:12;;;;;;;3.30;1.50;;;7.90;99.90;;;;;;5019745;28;20064;-78
2022/01/04 00:07:38;;;;;;;4.70;1.57;;;7.90;99.90;;;;;;5019062;28;20056;-77
2022/01/04 00:10:05;;;;;;;3.20;1.50;;;8.00;99.90;;;;;;5018551;28;20378;-78
2022/01/04 00:15:15;;;;;;;4.87;1.10;;;8.10;99.90;;;;;;5019434;28;20040;-78
2022/01/04 00:17:40;;;;;;;3.13;1.20;;;8.20;99.90;;;;;;5018328;28;20026;-79
2022/01/04 00:20:07;;;;;;;5.70;2.27;;;8.30;99.90;;;;;;5018924;28;20041;-78
2022/01/04 00:22:32;;;;;;;2.80;1.00;;;8.40;99.90;;;;;;5020182;28;20069;-78
2022/01/04 00:24:58;;;;;;;1.53;1.13;;;8.40;99.90;;;;;;5018147;28;20033;-78
2022/01/04 00:27:24;;;;;;;2.60;1.20;;;8.50;99.90;;;;;;5021414;28;20454;-78
2022/01/04 00:29:50;;;;;;;3.20;1.00;;;8.60;99.90;;;;;;5017729;28;20045;-78
2022/01/04 00:32:15;;;;;;;2.70;1.20;;;8.60;99.90;;;;;;5019736;28;20036;-78
2022/01/04 00:34:41;;;;;;;2.30;1.20;;;8.80;99.90;;;;;;5017882;28;20029;-78
2022/01/04 00:37:07;;;;;;;3.27;1.10;;;8.90;99.90;;;;;;5017989;28;20036;-78
2022/01/04 00:39:33;;;;;;;2.07;1.17;;;9.00;99.90;;;;;;5018487;28;20026;-78
2022/01/04 00:41:59;;;;;;;2.30;1.20;;;9.20;99.90;;;;;;5019444;28;20084;-78
2022/01/04 00:44:25;;;;;;;2.53;0.97;;;9.20;99.90;;;;;;5019840;28;20038;-78
2022/01/04 00:46:51;;;;;;;2.97;1.47;;;9.20;99.90;;;;;;5018164;28;20103;-78
2022/01/04 00:49:17;;;;;;;1.63;1.00;;;9.30;99.90;;;;;;5019050;28;20455;-78
2022/01/04 00:51:51;;;;;;;4.17;0.93;;;9.40;99.90;;;;;;5018862;28;20038;-78
2022/01/04 00:54:18;;;;;;;1.92;1.10;;;9.40;99.90;;;;;;5018910;28;20426;-78
2022/01/04 00:56:45;;;;;;;1.87;1.10;;;9.30;99.90;;;;;;5018247;28;20032;-78
2022/01/04 00:59:11;;;;;;;3.67;1.10;;;9.40;99.90;;;;;;5017412;28;20025;-78
2022/01/04 01:01:37;;;;;;;2.97;1.40;;;9.40;99.90;;;;;;5019018;28;20471;-78
2022/01/04 01:04:04;;;;;;;3.00;1.20;;;9.40;99.90;;;;;;5018215;28;20018;-78
2022/01/04 01:06:30;;;;;;;2.27;1.07;;;9.60;99.90;;;;;;5017391;28;20492;-79
2022/01/04 01:08:55;;;;;;;2.53;1.17;;;9.60;99.90;;;;;;5018285;28;20092;-79
2022/01/04 01:11:21;;;;;;;2.33;1.20;;;9.60;99.90;;;;;;5017620;28;20490;-79
2022/01/04 01:13:47;;;;;;;3.77;1.20;;;9.70;99.90;;;;;;5016291;28;20586;-79
2022/01/04 01:16:13;;;;;;;1.40;0.90;;;9.70;99.90;;;;;;5017169;28;20102;-79
2022/01/04 01:18:39;;;;;;;1.70;0.97;;;9.70;99.90;;;;;;5017447;28;20114;-79
2022/01/04 01:21:06;;;;;;;2.40;0.90;;;9.60;99.90;;;;;;5018272;28;20103;-79
2022/01/04 01:23:33;;;;;;;1.60;1.00;;;9.50;99.90;;;;;;5017604;28;20030;-78
2022/01/04 01:25:59;;;;;;;2.67;1.30;;;9.50;99.90;;;;;;5018139;28;20045;-79
2022/01/04 01:28:25;;;;;;;1.80;1.10;;;9.50;99.90;;;;;;5017707;28;20033;-78
2022/01/04 01:30:50;;;;;;;1.10;1.00;;;9.50;99.90;;;;;;5016346;28;20025;-78
2022/01/04 01:33:17;;;;;;;1.33;1.10;;;9.50;99.90;;;;;;5016857;28;20414;-78
2022/01/04 01:35:43;;;;;;;4.27;1.20;;;9.50;99.90;;;;;;5017959;28;20021;-79
2022/01/04 01:38:09;;;;;;;2.50;1.20;;;9.50;99.90;;;;;;5018230;28;20025;-79
2022/01/04 01:40:37;;;;;;;1.40;1.00;;;9.40;99.90;;;;;;5017551;28;20026;-78
2022/01/04 01:43:03;;;;;;;3.40;1.20;;;9.40;99.90;;;;;;5016827;28;20391;-78
2022/01/04 01:45:28;;;;;;;1.93;1.00;;;9.40;99.90;;;;;;5017843;28;20026;-78
2022/01/04 01:47:54;;;;;;;8.63;1.63;;;9.60;99.90;;;;;;5017773;28;20729;-78
2022/01/04 01:50:20;;;;;;;2.53;1.30;;;9.70;99.90;;;;;;5016982;28;20034;-78
2022/01/04 01:52:48;;;;;;;2.50;1.20;;;9.80;99.90;;;;;;5016743;28;20049;-78
2022/01/04 01:55:16;;;;;;;3.80;1.10;;;9.80;99.90;;;;;;5018055;28;20021;-78
2022/01/04 01:57:42;;;;;;;2.10;1.30;;;10.00;99.90;;;;;;5017788;28;20044;-78
2022/01/04 02:00:10;;;;;;;2.43;1.20;;;9.90;99.90;;;;;;5019811;28;20026;-77
2022/01/04 02:02:36;;;;;;;2.63;1.10;;;9.90;99.90;;;;;;5021307;28;20116;-78
2022/01/04 02:05:02;;;;;;;2.23;1.27;;;9.90;99.90;;;;;;5022889;28;20128;-77
2022/01/04 02:07:29;;;;;;;2.17;1.10;;;9.80;99.90;;;;;;5023004;28;20034;-78
2022/01/04 02:10:12;;;;;;;1.80;1.00;;;9.80;99.90;;;;;;5021838;28;20049;-78
2022/01/04 02:12:46;;;;;;;1.43;0.90;;;9.70;99.90;;;;;;5021916;28;20029;-79
2022/01/04 02:15:15;;;;;;;2.23;1.00;;;9.70;99.90;;;;;;5021962;28;20061;-78
2022/01/04 02:17:41;;;;;;;4.10;1.20;;;9.70;99.90;;;;;;5021906;28;20030;-78
2022/01/04 02:20:07;;;;;;;2.33;1.00;;;9.80;99.90;;;;;;5021133;28;20088;-78
2022/01/04 02:22:33;;;;;;;3.67;1.10;;;9.80;99.90;;;;;;5022012;28;20029;-78
2022/01/04 02:24:59;;;;;;;2.33;1.00;;;9.80;99.90;;;;;;5019986;28;20079;-78
2022/01/04 02:27:25;;;;;;;3.07;1.10;;;9.70;99.90;;;;;;5020157;28;20025;-78
2022/01/04 02:29:51;;;;;;;1.57;1.00;;;9.80;99.90;;;;;;5021185;28;20072;-78
2022/01/04 02:32:18;;;;;;;2.90;1.30;;;9.80;99.90;;;;;;5020624;28;20038;-77
2022/01/04 02:34:49;;;;;;;2.20;1.00;;;9.80;99.90;;;;;;5022063;28;20022;-77
2022/01/04 02:37:25;;;;;;;3.13;1.33;;;9.80;99.90;;;;;;5020715;28;20486;-77
2022/01/04 02:39:51;;;;;;;3.37;1.07;;;9.80;99.90;;;;;;5020393;28;20037;-78
2022/01/04 02:42:54;;;;;;;1.57;1.00;;;9.70;99.90;;;;;;5021616;28;20084;-77
2022/01/04 02:45:20;;;;;;;1.77;1.10;;;9.60;99.90;;;;;;5020004;28;20049;-77
2022/01/04 02:47:46;;;;;;;2.17;0.93;;;9.60;99.90;;;;;;5020644;28;20029;-77
2022/01/04 02:50:12;;;;;;;2.07;1.00;;;9.50;99.90;;;;;;5020105;28;20032;-77
2022/01/04 02:52:38;;;;;;;3.73;1.20;;;9.50;99.90;;;;;;5018964;28;20037;-77
2022/01/04 02:55:07;;;;;;;1.93;1.00;;;9.40;99.90;;;;;;5019269;28;20022;-77
2022/01/04 02:57:33;;;;;;;1.63;0.90;;;9.40;99.90;;;;;;5021902;28;20025;-78
2022/01/04 03:00:00;;;;;;;2.50;1.30;;;9.40;99.90;;;;;;5019834;28;20033;-78
2022/01/04 03:02:26;;;;;;;5.40;1.37;;;9.50;99.90;;;;;;5021551;28;20029;-78
2022/01/04 03:04:51;;;;;;;1.50;1.20;;;9.50;99.90;;;;;;5021370;28;20061;-78
2022/01/04 03:07:17;;;;;;;2.43;1.20;;;9.50;99.90;;;;;;5021482;28;20060;-78
2022/01/04 03:09:43;;;;;;;2.13;1.00;;;9.60;99.90;;;;;;5021343;28;20411;-78
2022/01/04 03:12:09;;;;;;;2.50;1.07;;;9.50;99.90;;;;;;5018001;28;20493;-78
2022/01/04 03:14:35;;;;;;;2.30;1.00;;;9.50;99.90;;;;;;5019864;28;20501;-78
2022/01/04 03:17:01;;;;;;;3.40;1.20;;;9.60;99.90;;;;;;5019692;28;20596;-78
2022/01/04 03:19:27;;;;;;;2.83;1.10;;;9.70;99.90;;;;;;5019276;28;20453;-77
2022/01/04 03:21:53;;;;;;;1.67;1.10;;;9.80;99.90;;;;;;5017266;28;20054;-78
2022/01/04 03:24:18;;;;;;;2.13;1.10;;;9.90;99.90;;;;;;5020323;28;20014;-78
2022/01/04 03:26:44;;;;;;;1.90;0.90;;;9.90;99.90;;;;;;5017837;28;20100;-77
2022/01/04 03:29:12;;;;;;;1.93;1.13;;;10.00;99.90;;;;;;5020977;28;20038;-78
2022/01/04 03:31:38;;;;;;;3.40;1.10;;;10.00;99.90;;;;;;5018545;28;20026;-78
2022/01/04 03:34:04;;;;;;;2.07;0.90;;;9.90;99.90;;;;;;5019371;28;20100;-78
2022/01/04 03:36:31;;;;;;;2.17;0.90;;;9.90;99.90;;;;;;5021946;28;20029;-78
2022/01/04 03:38:57;;;;;;;2.67;1.10;;;9.90;99.90;;;;;;5020072;28;20022;-78
2022/01/04 03:41:25;;;;;;;1.03;0.80;;;10.00;99.90;;;;;;5019840;28;20501;-78
2022/01/04 03:43:51;;;;;;;2.17;1.00;;;9.90;99.90;;;;;;5021656;28;20478;-78
2022/01/04 03:46:18;;;;;;;2.13;1.30;;;9.90;99.90;;;;;;5019067;28;20037;-78
2022/01/04 03:48:43;;;;;;;1.73;0.80;;;9.90;99.90;;;;;;5020321;28;20080;-78
2022/01/04 03:51:09;;;;;;;1.40;1.07;;;9.90;99.90;;;;;;5019435;28;20025;-78
2022/01/04 03:53:35;;;;;;;1.97;0.80;;;9.90;99.90;;;;;;5019147;28;20491;-78
2022/01/04 03:56:01;;;;;;;2.40;0.90;;;10.00;99.90;;;;;;5019707;28;20028;-78
2022/01/04 03:58:26;;;;;;;3.50;1.60;;;9.90;99.90;;;;;;5018105;28;20088;-78
2022/01/04 04:00:52;;;;;;;1.47;1.10;;;9.80;99.90;;;;;;5018633;28;20053;-78
2022/01/04 04:03:18;;;;;;;3.37;1.10;;;9.70;99.90;;;;;;5018044;28;20430;-78
2022/01/04 04:05:44;;;;;;;2.20;0.80;;;9.70;99.90;;;;;;5019494;28;20116;-78
2022/01/04 04:08:10;;;;;;;2.63;1.00;;;9.60;99.90;;;;;;5019827;28;20204;-78
2022/01/04 04:10:35;;;;;;;2.33;0.97;;;9.60;99.90;;;;;;5019055;28;20036;-78
2022/01/04 04:13:02;;;;;;;2.43;1.17;;;9.60;99.90;;;;;;5019680;28;20044;-77
2022/01/04 04:15:27;;;;;;;1.27;0.97;;;9.60;99.90;;;;;;5024786;28;20486;-78
2022/01/04 04:17:53;;;;;;;3.30;1.17;;;9.50;99.90;;;;;;5016730;28;20052;-78
2022/01/04 04:20:20;;;;;;;2.43;1.30;;;9.50;99.90;;;;;;5019951;28;20029;-78
2022/01/04 04:22:46;;;;;;;2.30;1.13;;;9.50;99.90;;;;;;5018804;28;20079;-78
2022/01/04 04:25:12;;;;;;;1.00;0.90;;;9.50;99.90;;;;;;5019475;28;20356;-77
2022/01/04 04:27:38;;;;;;;3.13;1.67;;;9.40;99.90;;;;;;5019263;28;20124;-78
2022/01/04 04:30:04;;;;;;;4.07;1.20;;;9.40;99.90;;;;;;5017754;28;20144;-78
2022/01/04 04:32:30;;;;;;;4.47;1.40;;;9.30;99.90;;;;;;5017977;28;20537;-78
2022/01/04 04:34:55;;;;;;;4.57;1.10;;;9.30;99.90;;;;;;5018308;28;20029;-78
2022/01/04 04:37:21;;;;;;;2.00;0.93;;;9.20;99.90;;;;;;5019610;28;20037;-78
2022/01/04 04:39:46;;;;;;;4.70;1.07;;;9.10;99.90;;;;;;5020360;28;20423;-78
2022/01/04 04:42:12;;;;;;;2.13;1.20;;;9.00;99.90;;;;;;5021984;28;20060;-78
2022/01/04 04:44:38;;;;;;;4.20;1.30;;;9.00;99.90;;;;;;5020096;28;20029;-79
2022/01/04 04:47:04;;;;;;;1.60;1.07;;;8.90;99.90;;;;;;5019236;28;20555;-79
2022/01/04 04:49:29;;;;;;;2.70;1.30;;;8.80;99.90;;;;;;5018646;28;20125;-78
2022/01/04 04:51:57;;;;;;;2.60;1.53;;;8.80;99.90;;;;;;5019994;28;20040;-77
2022/01/04 04:54:23;;;;;;;3.77;1.20;;;8.70;99.90;;;;;;5020163;28;20414;-77
2022/01/04 04:56:48;;;;;;;3.47;1.30;;;8.60;99.90;;;;;;5018624;28;20053;-77
2022/01/04 04:59:14;;;;;;;4.30;1.40;;;8.60;99.90;;;;;;5017485;28;20037;-78
2022/01/04 05:01:39;;;;;;;6.37;1.47;;;8.60;99.90;;;;;;5018910;28;20040;-78
2022/01/04 05:04:05;;;;;;;2.43;1.30;;;8.50;99.90;;;;;;5015980;28;20509;-78
2022/01/04 05:06:31;;;;;;;3.27;1.60;;;8.50;99.90;;;;;;5017826;28;20426;-77
2022/01/04 05:08:56;;;;;;;2.80;1.03;;;8.40;99.90;;;;;;5018925;28;20049;-77
2022/01/04 05:11:22;;;;;;;4.73;1.67;;;8.40;99.90;;;;;;5018947;28;20038;-77
2022/01/04 05:13:47;;;;;;;4.13;1.67;;;8.40;99.90;;;;;;5020012;28;20395;-78
2022/01/04 05:16:13;;;;;;;2.70;1.40;;;8.30;99.90;;;;;;5018573;28;20108;-78
2022/01/04 05:18:39;;;;;;;3.57;1.20;;;8.30;99.90;;;;;;5020853;28;20017;-78
2022/01/04 05:21:04;;;;;;;3.17;1.10;;;8.30;99.90;;;;;;5023644;28;20022;-77
2022/01/04 05:23:31;;;;;;;3.70;1.20;;;8.30;99.90;;;;;;5025737;28;20033;-77
2022/01/04 05:25:57;;;;;;;3.97;1.10;;;8.30;99.90;;;;;;5027708;28;20033;-78
2022/01/04 05:28:22;;;;;;;2.80;1.20;;;8.30;99.90;;;;;;5028702;28;20022;-74
2022/01/04 05:30:48;;;;;;;2.00;1.20;;;8.30;99.90;;;;;;5022928;28;20071;-74
2022/01/04 05:33:14;;;;;;;2.87;1.23;;;8.30;99.90;;;;;;5024435;28;20382;-73
2022/01/04 05:35:39;;;;;;;4.17;1.40;;;8.30;99.90;;;;;;5035443;28;20029;-74
2022/01/04 05:38:05;;;;;;;6.40;1.90;;;8.30;99.90;;;;;;5037023;28;20442;-74
2022/01/04 05:40:31;;;;;;;5.37;1.73;;;8.30;99.90;;;;;;5031324;28;20025;-74
2022/01/04 05:42:56;;;;;;;2.37;1.40;;;8.30;99.90;;;;;;5028323;28;20119;-74
2022/01/04 05:45:22;;;;;;;3.77;1.30;;;8.30;99.90;;;;;;5030430;28;20033;-74
2022/01/04 05:47:47;;;;;;;3.77;1.23;;;8.30;99.90;;;;;;5022879;28;20109;-74
2022/01/04 05:50:13;;;;;;;3.00;1.30;;;8.20;99.90;;;;;;5030985;28;20454;-74
2022/01/04 05:52:39;;;;;;;2.30;1.20;;;8.20;99.90;;;;;;5028628;28;20030;-75
2022/01/04 05:55:04;;;;;;;2.67;1.50;;;8.10;99.90;;;;;;5034577;28;20029;-75
2022/01/04 05:57:30;;;;;;;2.87;1.50;;;8.10;99.90;;;;;;5031110;28;20351;-74
2022/01/04 05:59:57;;;;;;;5.60;1.67;;;8.00;99.90;;;;;;5027999;28;20018;-74
2022/01/04 06:02:23;;;;;;;6.23;1.50;;;8.00;99.90;;;;;;5029288;28;20044;-74
2022/01/04 06:04:49;;;;;;;3.53;1.63;;;8.00;99.90;;;;;;5020854;28;20045;-75
2022/01/04 06:07:14;;;;;;;4.67;1.63;;;7.90;99.90;;;;;;5016872;28;20026;-76
2022/01/04 06:09:49;;;;;;;2.90;1.50;;;7.90;99.90;;;;;;5025102;28;20033;-76
2022/01/04 06:14:52;;;;;;;4.90;1.73;;;7.80;99.90;;;;;;5037266;28;20033;-72
2022/01/04 06:17:19;;;;;;;3.63;2.00;;;7.80;99.90;;;;;;5036331;28;20026;-73
2022/01/04 06:19:44;;;;;;;5.93;1.47;;;7.70;99.90;;;;;;5036555;28;20496;-73
2022/01/04 06:22:10;;;;;;;2.33;1.40;;;7.70;99.90;;;;;;5036749;28;20057;-73
2022/01/04 06:24:36;;;;;;;6.73;1.80;;;7.60;99.90;;;;;;5036720;28;20026;-73
2022/01/04 06:27:06;;;;;;;4.23;1.40;;;7.60;99.90;;;;;;5036860;28;20017;-74
2022/01/04 06:29:32;;;;;;;4.03;1.60;;;7.60;99.90;;;;;;5035987;28;20022;-73
2022/01/04 06:31:57;;;;;;;6.17;3.27;;;7.60;99.90;;;;;;5035985;28;20029;-73
2022/01/04 06:34:23;;;;;;;3.43;1.70;;;7.70;99.90;;;;;;5035875;28;20025;-71
2022/01/04 06:36:49;;;;;;;4.63;1.80;;;7.60;99.90;;;;;;5034493;28;20096;-73
2022/01/04 06:39:14;;;;;;;3.30;1.60;;;7.60;99.90;;;;;;5033111;28;20017;-73
2022/01/04 06:41:40;;;;;;;3.63;1.67;;;7.70;99.90;;;;;;5016042;28;20440;-73
2022/01/04 06:44:05;;;;;;;4.60;1.50;;;7.70;99.90;;;;;;5016244;28;20034;-73
2022/01/04 06:46:31;;;;;;;4.63;1.67;;;7.70;99.90;;;;;;5016478;28;20030;-73
2022/01/04 06:48:57;;;;;;;3.70;1.73;;;7.70;99.90;;;;;;5016421;28;20382;-73
2022/01/04 06:51:22;;;;;;;5.00;1.70;;;7.70;99.90;;;;;;5016023;28;20048;-73
2022/01/04 06:53:48;;;;;;;3.20;1.43;;;7.70;99.90;;;;;;5022961;28;20037;-76
2022/01/04 06:56:13;;;;;;;4.10;1.47;;;7.70;99.90;;;;;;5033169;28;20030;-73
2022/01/04 06:58:39;;;;;;;5.33;1.97;;;7.60;99.90;;;;;;5034781;28;20195;-72
2022/01/04 07:01:05;;;;;;;5.07;1.60;;;7.60;99.90;;;;;;5035342;28;20045;-72
2022/01/04 07:03:31;;;;;;;4.37;1.50;;;7.60;99.90;;;;;;5034966;28;20034;-72
2022/01/04 07:05:56;;;;;;;2.17;1.30;;;7.70;99.90;;;;;;5031266;28;20113;-76
2022/01/04 07:08:22;;;;;;;3.63;1.50;;;7.60;99.90;;;;;;5026963;28;20118;-76
2022/01/04 07:10:48;;;;;;;2.97;1.53;;;7.60;99.90;;;;;;5028598;28;20119;-76
2022/01/04 07:13:13;;;;;;;4.07;1.40;;;7.70;99.90;;;;;;5028869;28;20033;-76
2022/01/04 07:15:39;;;;;;;2.60;1.50;;;7.70;99.90;;;;;;5044774;28;20100;-74
2022/01/04 07:18:05;;;;;;;2.60;1.30;;;7.80;99.90;;;;;;5053584;28;20461;-73
2022/01/04 07:20:30;;;;;;;2.47;1.20;;;7.90;99.90;;;;;;5055070;28;20025;-73
2022/01/04 07:22:56;;;;;;;1.67;1.13;;;7.90;99.90;;;;;;5031936;28;20037;-77
2022/01/04 07:25:21;;;;;;;2.97;1.60;;;8.00;99.90;;;;;;5031284;28;20029;-73
2022/01/04 07:27:47;;;;;;;3.73;1.40;;;8.10;99.90;;;;;;5034247;28;20025;-76
2022/01/04 07:30:12;;;;;;;2.50;1.23;;;8.20;99.90;;;;;;5031325;28;20026;-76
2022/01/04 07:32:38;;;;;;;2.53;1.20;;;8.20;99.90;;;;;;5047891;28;20036;-76
2022/01/04 07:35:04;;;;;;;3.23;1.30;;;8.20;99.90;;;;;;5034300;28;20515;-77
2022/01/04 07:37:30;;;;;;;2.83;1.30;;;8.30;99.90;;;;;;5027501;28;20037;-76
2022/01/04 07:39:55;;;;;;;3.50;1.30;;;8.30;99.90;;;;;;5028619;28;20460;-78
2022/01/04 07:42:21;;;;;;;3.50;1.20;;;8.40;99.90;;;;;;5022363;28;20704;-78
2022/01/04 07:44:46;;;;;;;3.00;1.30;;;8.50;99.90;;;;;;5013520;28;20061;-78
2022/01/04 07:47:12;;;;;;;2.57;1.30;;;8.60;99.90;;;;;;5023457;28;20033;-78
2022/01/04 07:49:38;;;;;;;4.73;1.40;;;8.70;99.90;;;;;;5031774;28;20551;-66
2022/01/04 07:52:03;;;;;;;2.27;1.00;;;8.70;99.90;;;;;;5030772;28;20026;-75
2022/01/04 07:54:29;;;;;;;1.90;1.10;;;8.80;99.90;;;;;;5032921;28;20032;-74
2022/01/04 07:56:55;;;;;;;2.87;1.40;;;8.90;99.90;;;;;;5017388;28;20018;-75
2022/01/04 07:59:20;;;;;;;2.10;1.03;;;8.90;99.90;;;;;;5021917;28;20100;-76
2022/01/04 08:01:46;;;;;;;2.63;1.33;;;8.80;99.90;;;;;;5025674;28;20109;-75
2022/01/04 08:04:12;;;;;;;1.77;1.30;;;8.90;99.90;;;;;;5020132;28;21012;-76
2022/01/04 08:06:39;;;;;;;1.53;1.10;;;8.90;99.90;;;;;;5029351;28;20368;-76
2022/01/04 08:09:04;;;;;;;4.67;1.30;;;9.00;99.90;;;;;;5031736;28;20470;-76
2022/01/04 08:11:30;;;;;;;3.20;1.07;;;9.00;99.90;;;;;;5033550;28;20064;-76
2022/01/04 08:13:55;;;;;;;2.83;1.20;;;8.90;99.90;;;;;;5025742;28;20033;-76
2022/01/04 08:16:21;;;;;;;2.00;1.17;;;8.90;99.90;;;;;;5023444;28;20058;-76
2022/01/04 08:18:47;;;;;;;2.37;1.10;;;8.90;99.90;;;;;;5033487;28;20033;-75
2022/01/04 08:21:12;;;;;;;1.70;1.07;;;9.10;99.90;;;;;;5032607;28;20497;-76
2022/01/04 08:23:38;;;;;;;1.50;1.00;;;9.20;99.90;;;;;;5028036;28;20419;-75
2022/01/04 08:26:04;;;;;;;1.90;0.90;;;9.30;99.90;;;;;;5020143;28;20029;-75
2022/01/04 08:28:30;;;;;;;1.50;1.20;;;9.40;99.90;;;;;;5029681;28;20070;-77
2022/01/04 08:30:56;;;;;;;1.60;1.03;;;9.50;99.90;;;;;;5024326;28;20030;-78
2022/01/04 08:33:21;;;;;;;1.93;0.90;;;9.60;99.90;;;;;;5022783;28;20098;-78
2022/01/04 08:35:47;;;;;;;1.77;0.80;;;9.70;99.90;;;;;;5023797;28;20108;-77
2022/01/04 08:38:13;;;;;;;1.70;1.10;;;9.70;99.90;;;;;;5024193;28;20033;-78
2022/01/04 08:40:39;;;;;;;2.23;1.40;;;9.80;99.90;;;;;;5023837;28;20498;-77
2022/01/04 08:43:05;;;;;;;3.07;1.27;;;9.90;99.90;;;;;;5024332;28;20152;-77
2022/01/04 08:45:31;;;;;;;3.57;1.73;;;10.00;99.90;;;;;;5021697;28;20032;-77
2022/01/04 08:47:59;;;;;;;3.57;1.90;;;10.10;99.90;;;;;;5024532;28;20025;-76
2022/01/04 08:50:27;;;;;;;3.30;2.00;;;10.20;99.90;;;;;;5022944;28;20034;-79
2022/01/04 08:52:54;;;;;;;6.43;3.63;;;10.20;99.90;;;;;;5024329;28;20524;-78
2022/01/04 08:55:21;;;;;;;3.93;2.70;;;10.30;99.90;;;;;;5019324;28;20037;-79
2022/01/04 08:57:46;;;;;;;2.27;1.50;;;10.40;99.90;;;;;;5029246;28;20026;-79
2022/01/04 09:00:13;;;;;;;1.50;0.97;;;10.40;99.90;;;;;;5025871;28;20037;-79
2022/01/04 09:02:39;;;;;;;1.23;1.00;;;10.50;99.90;;;;;;5024544;28;20090;-80
2022/01/04 09:05:06;;;;;;;0.80;0.80;;;10.50;99.90;;;;;;5021596;28;20029;-80
2022/01/04 09:07:32;;;;;;;1.87;0.90;;;10.70;99.90;;;;;;5025668;28;20033;-79
2022/01/04 09:09:58;;;;;;;0.90;0.80;;;10.70;99.90;;;;;;5021897;28;20030;-80
2022/01/04 09:12:28;;;;;;;1.17;0.70;;;10.70;99.90;;;;;;5023128;28;20037;-80
2022/01/04 09:20:06;;;;;;;1.17;0.82;;;11.10;99.90;;;;;;5022998;28;20481;-78
2022/01/04 09:22:32;;;;;;;0.73;0.73;;;11.00;99.90;;;;;;5021607;28;20049;-77
2022/01/04 09:24:57;;;;;;;2.60;0.70;;;11.00;99.90;;;;;;5024136;28;20029;-77
2022/01/04 09:27:23;;;;;;;2.10;0.90;;;11.00;99.90;;;;;;5022540;28;20091;-77
2022/01/04 09:29:49;;;;;;;1.13;0.80;;;11.10;99.90;;;;;;5031341;28;20030;-76
2022/01/04 09:32:17;;;;;;;1.43;0.80;;;11.10;99.90;;;;;;5032539;28;20565;-76
2022/01/04 09:34:43;;;;;;;2.07;1.30;;;11.20;99.90;;;;;;5029935;28;20485;-76
2022/01/04 09:37:10;;;;;;;1.10;0.90;;;11.30;99.90;;;;;;5027627;28;20079;-76
2022/01/04 09:39:35;;;;;;;1.50;1.17;;;11.40;99.90;;;;;;5029580;28;20030;-76
2022/01/04 09:42:01;;;;;;;1.23;1.07;;;11.50;99.90;;;;;;5023848;28;20049;-76
2022/01/04 09:44:27;;;;;;;1.63;0.80;;;11.60;99.90;;;;;;5024115;28;20806;-78
2022/01/04 09:46:58;;;;;;;2.17;1.00;;;11.70;99.90;;;;;;5018358;28;20045;-79
2022/01/04 09:49:23;;;;;;;3.37;0.90;;;11.90;99.90;;;;;;5021354;28;20087;-77
2022/01/04 09:51:50;;;;;;;1.63;0.88;;;12.00;99.90;;;;;;5025941;28;20033;-78
2022/01/04 09:54:20;;;;;;;1.00;0.80;;;12.10;99.90;;;;;;5023337;28;20069;-77
2022/01/04 09:56:47;;;;;;;1.80;1.00;;;12.20;99.90;;;;;;5020987;28;20030;-77
2022/01/04 09:59:14;;;;;;;2.90;1.10;;;12.10;99.90;;;;;;5009347;28;20466;-77
2022/01/04 10:01:39;;;;;;;1.55;1.00;;;12.20;99.90;;;;;;5005453;28;20146;-77
2022/01/04 10:04:06;;;;;;;1.30;0.90;;;12.30;99.90;;;;;;5025153;28;20446;-78
2022/01/04 10:06:37;;;;;;;1.63;0.90;;;12.40;99.90;;;;;;5016548;28;20596;-78
2022/01/04 10:09:10;;;;;;;2.55;1.20;;;12.60;99.90;;;;;;5024456;28;20033;-79
2022/01/04 10:11:47;;;;;;;1.95;0.90;;;12.60;99.90;;;;;;5025299;28;20022;-79
2022/01/04 10:14:26;;;;;;;1.13;0.70;;;12.70;99.90;;;;;;5019992;28;20072;-79
2022/01/04 10:16:54;;;;;;;1.00;0.80;;;12.70;99.90;;;;;;5020378;28;20427;-79
2022/01/04 10:19:40;;;;;;;1.02;0.80;;;12.80;99.90;;;;;;5020183;28;20062;-78
2022/01/04 10:22:23;;;;;;;1.17;0.90;;;12.90;99.90;;;;;;5025964;28;20037;-78
2022/01/04 10:25:11;;;;;;;1.13;0.77;;;13.00;99.90;;;;;;5025046;28;20042;-78
2022/01/04 10:27:43;;;;;;;1.23;0.82;;;12.90;99.90;;;;;;5024740;28;20034;-78
2022/01/04 10:30:29;;;;;;;0.82;0.82;;;12.90;99.90;;;;;;5024948;28;20041;-78
2022/01/04 10:33:04;;;;;;;1.20;0.93;;;12.90;99.90;;;;;;5026592;28;20047;-78
2022/01/04 10:35:35;;;;;;;2.47;0.90;;;13.00;99.90;;;;;;5025550;28;20029;-79
2022/01/04 10:38:08;;;;;;;0.93;0.70;;;13.00;99.90;;;;;;5019615;28;20034;-78
2022/01/04 10:40:34;;;;;;;1.02;0.90;;;13.10;99.90;;;;;;5048466;28;20029;-66
2022/01/04 10:43:17;;;;;;;1.15;0.77;;;13.00;99.90;;;;;;5028157;28;20061;-66
2022/01/04 10:45:43;;;;;;;1.10;0.85;;;13.10;99.90;;;;;;5029767;28;20032;-66
2022/01/04 10:48:12;;;;;;;1.63;0.90;;;13.10;99.90;;;;;;5028740;28;20033;-67
2022/01/04 10:50:38;;;;;;;1.40;0.90;;;13.20;99.90;;;;;;5029337;28;20033;-66
2022/01/04 10:53:05;;;;;;;1.33;0.70;;;13.20;99.90;;;;;;5046796;28;20233;-66
2022/01/04 10:55:39;;;;;;;2.53;0.90;;;13.20;99.90;;;;;;5037243;28;20080;-63
2022/01/04 10:58:05;;;;;;;2.17;0.80;;;13.40;99.90;;;;;;5030108;28;20029;-63
2022/01/04 11:00:31;;;;;;;1.23;0.90;;;13.50;99.90;;;;;;5031498;28;20037;-64
2022/01/04 11:02:58;;;;;;;1.63;0.80;;;13.60;99.90;;;;;;5031517;28;20049;-75
2022/01/04 11:05:25;;;;;;;2.53;0.90;;;13.60;99.90;;;;;;5034999;28;20026;-75
2022/01/04 11:08:00;;;;;;;1.67;1.00;;;13.50;99.90;;;;;;5033833;28;20044;-75
2022/01/04 11:10:28;;;;;;;1.55;0.90;;;13.60;99.90;;;;;;5032750;28;20104;-75
2022/01/04 11:12:58;;;;;;;1.40;0.95;;;13.70;99.90;;;;;;5032838;28;20064;-75
2022/01/04 11:15:25;;;;;;;1.98;1.00;;;13.80;99.90;;;;;;5032740;28;20030;-75
2022/01/04 11:17:51;;;;;;;1.27;0.80;;;14.10;99.90;;;;;;5032972;28;20474;-75
2022/01/04 11:20:17;;;;;;;1.30;0.90;;;14.30;99.90;;;;;;5024516;28;20550;-75
2022/01/04 11:22:45;;;;;;;1.65;0.90;;;14.40;99.90;;;;;;5014124;28;20124;-77
2022/01/04 11:25:13;;;;;;;1.30;0.82;;;14.60;99.90;;;;;;5028232;28;20112;-77
2022/01/04 11:27:40;;;;;;;1.08;0.80;;;14.70;99.90;;;;;;5028828;28;20041;-77
2022/01/04 11:30:38;;;;;;;1.73;0.93;;;14.80;99.90;;;;;;5029385;28;20036;-78
2022/01/04 11:33:13;;;;;;;0.88;0.70;;;14.80;99.90;;;;;;5026948;28;20042;-78
2022/01/04 11:35:39;;;;;;;1.67;0.82;;;15.00;99.90;;;;;;5028659;28;20036;-77
2022/01/04 11:38:04;;;;;;;0.93;0.80;;;15.10;99.90;;;;;;5028468;28;20474;-75
2022/01/04 11:40:39;;;;;;;1.05;0.90;;;15.10;99.90;;;;;;5028516;28;20529;-76
2022/01/04 11:43:22;;;;;;;1.10;0.65;;;15.20;99.90;;;;;;5019272;28;20470;-76
2022/01/04 11:45:48;;;;;;;1.00;0.80;;;15.30;99.90;;;;;;5009032;28;20034;-76
2022/01/04 11:48:31;;;;;;;0.95;0.80;;;15.30;99.90;;;;;;5009803;28;20116;-78
2022/01/04 11:50:59;;;;;;;0.93;0.80;;;15.30;99.90;;;;;;5009251;28;20321;-78
2022/01/04 11:53:24;;;;;;;1.13;0.85;;;15.30;99.90;;;;;;5008525;28;20038;-77
2022/01/04 11:55:57;;;;;;;1.27;0.80;;;15.20;99.90;;;;;;5027905;28;20123;-77
2022/01/04 11:58:26;;;;;;;1.38;0.80;;;15.30;99.90;;;;;;5027936;28;20251;-77
2022/01/04 12:01:03;;;;;;;1.27;0.80;;;15.40;99.90;;;;;;5027872;28;20060;-77
2022/01/04 12:03:55;;;;;;;0.88;0.77;;;15.50;99.90;;;;;;5016046;28;20033;-78
2022/01/04 12:06:34;;;;;;;2.22;0.80;;;15.50;99.90;;;;;;5010595;28;20131;-78
2022/01/04 12:09:00;;;;;;;2.15;1.45;;;15.60;99.90;;;;;;5028004;28;20450;-76
2022/01/04 12:11:26;;;;;;;2.00;0.90;;;15.70;99.90;;;;;;5031661;28;20041;-76
2022/01/04 12:13:55;;;;;;;3.00;0.80;;;15.70;99.90;;;;;;5029277;28;20029;-75
2022/01/04 12:16:34;;;;;;;1.58;0.80;;;15.60;99.90;;;;;;5027071;28;20093;-75
2022/01/04 12:19:02;;;;;;;3.97;0.80;;;15.70;99.90;;;;;;5031157;28;20101;-76
2022/01/04 12:21:30;;;;;;;2.45;1.00;;;15.60;99.90;;;;;;5027515;28;20026;-76
2022/01/04 12:24:00;;;;;;;2.00;0.80;;;15.70;99.90;;;;;;5024085;28;20049;-75
2022/01/04 12:26:32;;;;;;;1.48;0.85;;;15.80;99.90;;;;;;5029169;28;20048;-75
2022/01/04 12:28:58;;;;;;;1.48;0.80;;;16.00;99.90;;;;;;5029545;28;20493;-74
2022/01/04 12:31:25;;;;;;;2.00;0.85;;;16.00;99.90;;;;;;5024829;28;20041;-75
2022/01/04 12:33:59;;;;;;;5.07;1.08;;;16.10;99.90;;;;;;5023735;28;20038;-75
2022/01/04 12:36:43;;;;;;;1.73;1.05;;;16.20;99.90;;;;;;5025834;28;20036;-76
2022/01/04 12:39:18;;;;;;;1.80;0.90;;;16.20;99.90;;;;;;5023944;28;20022;-75
2022/01/04 12:41:46;;;;;;;1.05;0.77;;;16.40;99.90;;;;;;5028107;28;20084;-75
2022/01/04 12:44:20;;;;;;;1.52;0.77;;;16.40;99.90;;;;;;5030189;28;20041;-76
2022/01/04 12:46:47;;;;;;;1.80;0.90;;;16.40;99.90;;;;;;5026913;28;20120;-75
2022/01/04 12:49:14;;;;;;;2.00;0.90;;;16.40;99.90;;;;;;5030144;28;20048;-76
2022/01/04 12:51:53;;;;;;;2.03;0.90;;;16.40;99.90;;;;;;5018885;28;20040;-76
2022/01/04 12:54:25;;;;;;;3.67;1.75;;;16.30;99.90;;;;;;5028705;28;20048;-75
2022/01/04 12:56:53;;;;;;;1.73;0.90;;;16.40;99.90;;;;;;5024457;28;20029;-76
2022/01/04 12:59:24;;;;;;;3.72;1.13;;;16.30;99.90;;;;;;5021904;28;20360;-75
2022/01/04 13:01:52;;;;;;;2.25;0.90;;;16.30;99.90;;;;;;5027395;28;20106;-76
2022/01/04 13:04:20;;;;;;;1.92;0.90;;;16.30;99.90;;;;;;5027336;28;20022;-75